Katwe Airport


Codes: FZQH/
Name: Katwe Airport
City: Katwe
Country: Congo [DRC]
Elevation: 5577 ft.

Photos at Katwe Airport


   Photos courtesy of SpottingLog. You can add your own sightings and photos by signing up for a free trial today.



No photos found.

Weather at Katwe Airport


Time (UTC)DescriptionTempratureWindCloud coverageVisibilityPressureHumidity
25-Jun-2024 15:00Clear Sky22°C9 mph, SE5%10000m1015hPa31%
25-Jun-2024 18:00Clear Sky16°C4 mph, SE3%10000m1018hPa44%
25-Jun-2024 21:00Clear Sky12°C4 mph, SE0%10000m1019hPa53%
26-Jun-2024 00:00Clear Sky10°C4 mph, SE0%10000m1019hPa68%
26-Jun-2024 03:00Clear Sky8°C7 mph, SE0%10000m1019hPa82%
26-Jun-2024 06:00Clear Sky12°C9 mph, E0%10000m1021hPa68%
26-Jun-2024 09:00Clear Sky19°C9 mph, E0%10000m1019hPa43%
26-Jun-2024 12:00Clear Sky23°C9 mph, SE0%10000m1015hPa28%
26-Jun-2024 15:00Clear Sky21°C7 mph, SE0%10000m1014hPa31%
26-Jun-2024 18:00Clear Sky14°C4 mph, SE0%10000m1018hPa47%
26-Jun-2024 21:00Clear Sky13°C4 mph, SE0%10000m1019hPa49%
27-Jun-2024 00:00Clear Sky11°C4 mph, E0%10000m1018hPa65%
27-Jun-2024 03:00Clear Sky10°C7 mph, E2%10000m1019hPa74%
27-Jun-2024 06:00Clear Sky13°C9 mph, E7%10000m1020hPa64%
27-Jun-2024 09:00Clear Sky20°C9 mph, E7%10000m1019hPa39%
27-Jun-2024 12:00Few Clouds24°C7 mph, E19%10000m1015hPa26%
27-Jun-2024 15:00Clear Sky22°C9 mph, SE5%10000m1015hPa30%
27-Jun-2024 18:00Clear Sky15°C4 mph, SE3%10000m1018hPa42%
27-Jun-2024 21:00Clear Sky13°C4 mph, E0%10000m1019hPa43%
28-Jun-2024 00:00Clear Sky11°C7 mph, E7%10000m1019hPa61%
28-Jun-2024 03:00Scattered Clouds10°C7 mph, SE47%10000m1020hPa70%
28-Jun-2024 06:00Broken Clouds13°C9 mph, SE54%10000m1021hPa61%
28-Jun-2024 09:00Broken Clouds20°C9 mph, E63%10000m1019hPa40%
28-Jun-2024 12:00Broken Clouds24°C7 mph, E58%10000m1015hPa29%
28-Jun-2024 15:00Scattered Clouds22°C4 mph, SE28%10000m1014hPa31%
28-Jun-2024 18:00Few Clouds15°C2 mph, E18%10000m1018hPa46%
28-Jun-2024 21:00Broken Clouds14°C2 mph, SE60%10000m1018hPa46%
29-Jun-2024 00:00Scattered Clouds11°C4 mph, E50%10000m1019hPa56%
29-Jun-2024 03:00Scattered Clouds10°C4 mph, E36%10000m1020hPa67%
29-Jun-2024 06:00Scattered Clouds13°C7 mph, SE31%10000m1021hPa61%
29-Jun-2024 09:00Overcast Clouds20°C7 mph, SE85%10000m1019hPa39%
29-Jun-2024 12:00Overcast Clouds24°C7 mph, SE87%10000m1015hPa28%
29-Jun-2024 15:00Broken Clouds22°C4 mph, SE78%10000m1014hPa31%
29-Jun-2024 18:00Broken Clouds16°C2 mph, SE80%10000m1017hPa43%
29-Jun-2024 21:00Broken Clouds14°C2 mph, SE65%10000m1018hPa48%
30-Jun-2024 00:00Broken Clouds13°C2 mph, SE61%10000m1017hPa48%
30-Jun-2024 03:00Broken Clouds11°C4 mph, SE73%10000m1018hPa58%
30-Jun-2024 06:00Broken Clouds14°C7 mph, E77%10000m1019hPa55%
30-Jun-2024 09:00Broken Clouds22°C7 mph, E84%10000m1018hPa33%
30-Jun-2024 12:00Broken Clouds25°C4 mph, SE66%10000m1013hPa24%